Celina, Tennessee
Current Conditions -  °F | °C
As of 11:15 AM on Sunday 23 Nov 2014 (Local Time) from KSRB Reporting Station
Overcast Overcast  
Wind Chill: 57°   Ceiling: 3700
Heat Index: 57°   Visibility: 5mi
Dew Point: 54°   Wind: 8mph
Humidity: 88%   Direction: 170°S
Pressure: 29.78"   Gusts: NA
Location:  36.55°N, 85.51°W
Report Text: KSRB 231715Z AUTO 17007KT 5SM SCT020 BKN037 OVC060 14/12 A2978 RMK
Loading
Personal Weather Stations






























Interactive Weather Map New forecast layout! Learn more

10-Day Weather Forecast

Advertisements
Track Severe Weather on mobile